Time;durP1;ratioP1;P1;durP2;ratioP2;P2;SDS_P1;SDS_P2;PMS_P1;PMS_P2;Temp;Humidity;BMP_temperature;BMP_pressure;BME280_temperature;BME280_humidity;BME280_pressure;Samples;Min_cycle;Max_cycle;Signal;HPM_P1;HPM_P2
2023/10/02 00:00:00;;;;;;;10.50;4.40;;;;;;;;;;103606;1291;545441;-75
2023/10/02 00:03:34;;;;;;;10.20;4.20;;;;;;;;;;103767;1289;544772;-75
2023/10/02 00:07:25;;;;;;;10.20;4.10;;;;;;;;;;103922;1288;548262;-78
2023/10/02 00:14:38;;;;;;;10.60;4.80;;;;;;;;;;103601;1291;547874;-80
2023/10/02 00:18:18;;;;;;;9.60;4.20;;;;;;;;;;103588;1295;548021;-76
2023/10/02 00:21:49;;;;;;;11.30;4.20;;;;;;;;;;103761;1288;545633;-76
2023/10/02 00:25:51;;;;;;;9.80;3.90;;;;;;;;;;103607;1295;548008;-76
2023/10/02 00:29:06;;;;;;;11.90;4.40;;;;;;;;;;103493;1295;545786;-77
2023/10/02 00:32:45;;;;;;;9.60;4.20;;;;;;;;;;103483;1293;545392;-76
2023/10/02 00:36:17;;;;;;;10.30;4.50;;;;;;;;;;103779;1289;545693;-76
2023/10/02 00:40:00;;;;;;;10.40;4.60;;;;;;;;;;103609;1292;548642;-76
2023/10/02 00:43:45;;;;;;;11.20;4.50;;;;;;;;;;103651;1292;547965;-76
2023/10/02 00:47:15;;;;;;;10.20;4.50;;;;;;;;;;103597;1294;547896;-76
2023/10/02 00:50:50;;;;;;;9.60;4.50;;;;;;;;;;103900;1292;544990;-81
2023/10/02 00:54:27;;;;;;;9.70;4.30;;;;;;;;;;103375;1294;545771;-76
2023/10/02 00:58:05;;;;;;;9.40;4.00;;;;;;;;;;103756;1294;545131;-76
2023/10/02 01:01:39;;;;;;;10.20;4.40;;;;;;;;;;103761;1293;545136;-80
2023/10/02 01:05:30;;;;;;;10.00;4.00;;;;;;;;;;103658;1292;548076;-76
2023/10/02 01:08:59;;;;;;;9.50;4.50;;;;;;;;;;103893;1294;544999;-76
2023/10/02 01:12:43;;;;;;;9.60;4.40;;;;;;;;;;103419;1294;548085;-76
2023/10/02 01:16:17;;;;;;;9.60;4.30;;;;;;;;;;103309;1295;547991;-76
2023/10/02 01:19:53;;;;;;;10.30;3.80;;;;;;;;;;103833;1292;544948;-76
2023/10/02 01:23:31;;;;;;;9.40;4.10;;;;;;;;;;103480;1295;548166;-76
2023/10/02 01:27:01;;;;;;;10.30;4.40;;;;;;;;;;103747;1295;545556;-76
2023/10/02 01:30:45;;;;;;;11.10;4.80;;;;;;;;;;103317;1298;547949;-76
2023/10/02 01:34:39;;;;;;;8.60;3.80;;;;;;;;;;103923;1289;547791;-76
2023/10/02 01:38:00;;;;;;;9.20;4.40;;;;;;;;;;103635;1290;547836;-76
2023/10/02 01:41:37;;;;;;;10.00;4.30;;;;;;;;;;103332;1308;547828;-76
2023/10/02 01:45:09;;;;;;;9.70;4.30;;;;;;;;;;103766;1290;544980;-78
2023/10/02 01:48:52;;;;;;;8.60;4.30;;;;;;;;;;103863;1287;546272;-76
2023/10/02 01:52:32;;;;;;;9.10;4.30;;;;;;;;;;103639;1292;547776;-75
2023/10/02 01:56:10;;;;;;;10.40;4.00;;;;;;;;;;103746;1289;545449;-76
2023/10/02 01:59:45;;;;;;;9.10;4.10;;;;;;;;;;103551;1291;547908;-75
2023/10/02 02:03:22;;;;;;;9.60;4.00;;;;;;;;;;103995;1289;548786;-76
2023/10/02 02:06:56;;;;;;;9.00;4.20;;;;;;;;;;104588;1282;545560;-77
2023/10/02 02:10:32;;;;;;;8.40;3.80;;;;;;;;;;103797;1289;545029;-75
2023/10/02 02:14:15;;;;;;;9.60;4.00;;;;;;;;;;103581;1291;548116;-81
2023/10/02 02:17:45;;;;;;;9.80;4.10;;;;;;;;;;103604;1294;545701;-75
2023/10/02 02:21:29;;;;;;;9.40;4.00;;;;;;;;;;103581;1291;547979;-78
2023/10/02 02:25:06;;;;;;;9.40;3.70;;;;;;;;;;103579;1292;548443;-75
2023/10/02 02:28:44;;;;;;;9.10;4.10;;;;;;;;;;103667;1291;545702;-76
2023/10/02 02:32:36;;;;;;;9.60;4.30;;;;;;;;;;103625;1302;548164;-78
2023/10/02 02:36:05;;;;;;;8.30;3.50;;;;;;;;;;104211;1289;544767;-79
2023/10/02 02:39:30;;;;;;;8.70;4.30;;;;;;;;;;103997;1295;546596;-76
2023/10/02 02:43:19;;;;;;;10.40;4.20;;;;;;;;;;103607;1292;548009;-76
2023/10/02 02:46:53;;;;;;;9.90;4.00;;;;;;;;;;103436;1295;546154;-75
2023/10/02 02:50:33;;;;;;;9.20;3.70;;;;;;;;;;103275;1297;547809;-79
2023/10/02 02:54:05;;;;;;;7.40;3.10;;;;;;;;;;103536;1295;546300;-76
2023/10/02 02:57:45;;;;;;;9.10;3.60;;;;;;;;;;103607;1290;547988;-76
2023/10/02 03:01:22;;;;;;;10.70;3.70;;;;;;;;;;103538;1291;547846;-81
2023/10/02 03:04:58;;;;;;;10.30;4.10;;;;;;;;;;103601;1292;548345;-76
2023/10/02 03:08:39;;;;;;;9.20;3.60;;;;;;;;;;103557;1290;546903;-76
2023/10/02 03:12:05;;;;;;;8.20;3.30;;;;;;;;;;103934;1289;544858;-78
2023/10/02 03:15:54;;;;;;;8.30;3.60;;;;;;;;;;103740;1289;547916;-76
2023/10/02 03:19:26;;;;;;;9.70;3.80;;;;;;;;;;104487;1289;545234;-75
2023/10/02 03:23:11;;;;;;;10.10;4.00;;;;;;;;;;103530;1294;547933;-75
2023/10/02 03:40:14;;;;;;;8.50;3.60;;;;;;;;;;103613;1289;547987;-75
2023/10/02 03:43:49;;;;;;;8.70;3.90;;;;;;;;;;103654;1292;548109;-81
2023/10/02 03:47:14;;;;;;;8.10;3.60;;;;;;;;;;103776;1292;545647;-75
2023/10/02 03:50:49;;;;;;;9.90;3.60;;;;;;;;;;103762;1291;545066;-76
2023/10/02 03:54:29;;;;;;;8.20;3.60;;;;;;;;;;103644;1290;544900;-75
2023/10/02 03:58:10;;;;;;;10.50;3.90;;;;;;;;;;103631;1289;547986;-76
2023/10/02 04:01:41;;;;;;;8.40;3.60;;;;;;;;;;103741;1292;545189;-76
2023/10/02 04:05:32;;;;;;;7.60;3.20;;;;;;;;;;103711;1291;545722;-76
2023/10/02 04:09:09;;;;;;;8.30;3.70;;;;;;;;;;103427;1292;548013;-78
2023/10/02 04:12:50;;;;;;;10.30;4.20;;;;;;;;;;103770;1290;548055;-75
2023/10/02 04:17:09;;;;;;;9.00;3.70;;;;;;;;;;103880;1292;544974;-81
2023/10/02 04:20:28;;;;;;;8.90;3.60;;;;;;;;;;103616;1291;547768;-75
2023/10/02 04:23:57;;;;;;;9.40;3.50;;;;;;;;;;104003;1302;544968;-76
2023/10/02 04:31:20;;;;;;;9.40;3.80;;;;;;;;;;103721;1290;544744;-76
2023/10/02 04:34:56;;;;;;;11.30;4.00;;;;;;;;;;103577;1292;547988;-75
2023/10/02 04:38:49;;;;;;;10.00;3.70;;;;;;;;;;104231;1291;544768;-79
2023/10/02 04:42:19;;;;;;;12.30;3.70;;;;;;;;;;103734;1289;545700;-76
2023/10/02 04:45:47;;;;;;;19.80;4.60;;;;;;;;;;103683;1292;547820;-76
2023/10/02 04:49:29;;;;;;;12.90;4.50;;;;;;;;;;103866;1288;548121;-75
2023/10/02 04:56:34;;;;;;;9.80;4.00;;;;;;;;;;104097;1289;544976;-76
2023/10/02 05:00:33;;;;;;;12.80;3.80;;;;;;;;;;103652;1295;548574;-76
2023/10/02 05:03:55;;;;;;;11.80;3.80;;;;;;;;;;103629;1292;548358;-76
2023/10/02 05:07:32;;;;;;;13.00;4.60;;;;;;;;;;103524;1292;547950;-76
2023/10/02 05:11:56;;;;;;;10.90;3.80;;;;;;;;;;103843;1288;548105;-75
2023/10/02 05:14:52;;;;;;;11.20;3.70;;;;;;;;;;103709;1295;545192;-75
2023/10/02 05:18:35;;;;;;;15.70;4.60;;;;;;;;;;103799;1292;544785;-76
2023/10/02 05:22:24;;;;;;;16.40;4.30;;;;;;;;;;103676;1292;547990;-75
2023/10/02 05:36:21;;;;;;;18.60;5.40;;;;;;;;;;104629;1283;553665;-75
2023/10/02 05:46:54;;;;;;;22.30;5.40;;;;;;;;;;103375;1294;547875;-75
2023/10/02 05:50:05;;;;;;;12.70;4.90;;;;;;;;;;103744;1292;545539;-75
2023/10/02 05:53:55;;;;;;;14.90;5.00;;;;;;;;;;103846;1292;547796;-75
2023/10/02 05:57:31;;;;;;;15.50;4.90;;;;;;;;;;103407;1295;548144;-78
2023/10/02 06:01:18;;;;;;;18.50;5.40;;;;;;;;;;103823;1290;544916;-77
2023/10/02 06:04:35;;;;;;;17.60;5.50;;;;;;;;;;103759;1290;547973;-75
2023/10/02 06:08:16;;;;;;;16.50;4.90;;;;;;;;;;103643;1292;548454;-76
2023/10/02 06:12:05;;;;;;;38.30;6.60;;;;;;;;;;103870;1293;544815;-75
2023/10/02 06:19:06;;;;;;;22.70;4.90;;;;;;;;;;104013;1292;545627;-76
2023/10/02 06:22:47;;;;;;;17.70;5.00;;;;;;;;;;103649;1292;547774;-76
2023/10/02 06:26:18;;;;;;;21.50;5.40;;;;;;;;;;104032;1289;545696;-76
2023/10/02 06:29:58;;;;;;;19.10;4.90;;;;;;;;;;103625;1292;548278;-75
2023/10/02 06:33:37;;;;;;;13.70;4.60;;;;;;;;;;103782;1292;545343;-75
2023/10/02 06:37:17;;;;;;;14.10;5.00;;;;;;;;;;103556;1292;547764;-76
2023/10/02 06:40:57;;;;;;;16.90;4.80;;;;;;;;;;103618;1289;548154;-76
2023/10/02 06:44:29;;;;;;;25.90;5.20;;;;;;;;;;104028;1292;544867;-75
2023/10/02 06:48:09;;;;;;;14.80;4.00;;;;;;;;;;103635;1289;547914;-79
2023/10/02 06:51:41;;;;;;;11.70;4.10;;;;;;;;;;103725;1292;544776;-77
2023/10/02 06:55:18;;;;;;;12.20;3.90;;;;;;;;;;103695;1289;545454;-76
2023/10/02 06:58:57;;;;;;;12.90;4.10;;;;;;;;;;103742;1292;544904;-83
2023/10/02 07:02:38;;;;;;;14.50;4.10;;;;;;;;;;103911;1288;545386;-75
2023/10/02 07:06:12;;;;;;;11.10;4.20;;;;;;;;;;103890;1290;544824;-75
2023/10/02 07:09:48;;;;;;;10.90;4.00;;;;;;;;;;104402;1285;544769;-75
2023/10/02 07:13:31;;;;;;;9.30;3.80;;;;;;;;;;103330;1296;547814;-81
2023/10/02 07:17:19;;;;;;;11.70;3.70;;;;;;;;;;103678;1292;547970;-76
2023/10/02 07:20:42;;;;;;;10.80;3.80;;;;;;;;;;103807;1291;545436;-77
2023/10/02 07:24:28;;;;;;;23.50;5.30;;;;;;;;;;103668;1294;548164;-76
2023/10/02 07:28:03;;;;;;;14.00;4.30;;;;;;;;;;103539;1291;547949;-75
2023/10/02 07:31:34;;;;;;;9.80;3.80;;;;;;;;;;103518;1294;544945;-76
2023/10/02 07:35:10;;;;;;;12.60;4.30;;;;;;;;;;103736;1292;545771;-76
2023/10/02 07:38:47;;;;;;;11.30;3.70;;;;;;;;;;103962;1288;545061;-76
2023/10/02 07:42:31;;;;;;;12.30;3.90;;;;;;;;;;103566;1292;549836;-77
2023/10/02 07:46:27;;;;;;;10.80;3.90;;;;;;;;;;104004;1292;545618;-77
2023/10/02 07:49:40;;;;;;;12.60;3.80;;;;;;;;;;104025;1292;544753;-76
2023/10/02 07:53:17;;;;;;;14.10;4.00;;;;;;;;;;103516;1292;545745;-78
2023/10/02 07:57:01;;;;;;;9.90;3.80;;;;;;;;;;103817;1292;548342;-76
2023/10/02 08:00:52;;;;;;;10.20;4.20;;;;;;;;;;103897;1291;548027;-77
2023/10/02 08:04:16;;;;;;;10.40;4.30;;;;;;;;;;103647;1291;546054;-76
2023/10/02 08:08:08;;;;;;;19.00;4.60;;;;;;;;;;103503;1290;547885;-76
2023/10/02 08:11:31;;;;;;;11.50;4.00;;;;;;;;;;103579;1291;547827;-76
2023/10/02 08:15:27;;;;;;;9.90;3.60;;;;;;;;;;103956;1299;548006;-74
2023/10/02 08:18:57;;;;;;;9.70;3.30;;;;;;;;;;104262;1288;544766;-77
2023/10/02 08:22:36;;;;;;;8.30;3.50;;;;;;;;;;103459;1294;547958;-77
2023/10/02 08:26:05;;;;;;;10.10;4.00;;;;;;;;;;103655;1291;548014;-77
2023/10/02 08:29:38;;;;;;;8.90;3.50;;;;;;;;;;103643;1292;548148;-77
2023/10/02 08:33:09;;;;;;;10.00;3.80;;;;;;;;;;103734;1288;545454;-76
2023/10/02 08:37:12;;;;;;;9.90;3.40;;;;;;;;;;103332;1295;548175;-76
2023/10/02 08:40:25;;;;;;;9.10;3.80;;;;;;;;;;104049;1288;544871;-76
2023/10/02 08:44:02;;;;;;;16.50;10.70;;;;;;;;;;103568;1292;544804;-76
2023/10/02 08:47:40;;;;;;;17.30;7.80;;;;;;;;;;103492;1292;545060;-77
2023/10/02 08:51:32;;;;;;;11.80;4.20;;;;;;;;;;103538;1302;547785;-77
2023/10/02 08:54:55;;;;;;;8.70;3.40;;;;;;;;;;103897;1289;545885;-76
2023/10/02 08:58:32;;;;;;;9.80;4.10;;;;;;;;;;104034;1292;545688;-77
2023/10/02 09:02:16;;;;;;;9.50;4.20;;;;;;;;;;103570;1289;546086;-79
2023/10/02 09:06:22;;;;;;;9.90;3.90;;;;;;;;;;103453;1292;547895;-77
2023/10/02 09:10:04;;;;;;;9.20;3.90;;;;;;;;;;103613;1289;548100;-76
2023/10/02 09:13:13;;;;;;;8.40;4.00;;;;;;;;;;103688;1289;546391;-76
2023/10/02 09:16:45;;;;;;;11.40;4.00;;;;;;;;;;103662;1290;547972;-76
2023/10/02 09:20:38;;;;;;;12.70;4.20;;;;;;;;;;103610;1291;547997;-77
2023/10/02 09:24:00;;;;;;;15.10;4.30;;;;;;;;;;103585;1292;547974;-77
2023/10/02 09:27:31;;;;;;;13.70;4.50;;;;;;;;;;103919;1288;544962;-76
2023/10/02 09:31:15;;;;;;;9.90;4.10;;;;;;;;;;103558;1292;548111;-76
2023/10/02 09:35:10;;;;;;;9.10;3.90;;;;;;;;;;103960;1286;547802;-76
2023/10/02 09:38:31;;;;;;;10.10;4.30;;;;;;;;;;103721;1292;545007;-77
2023/10/02 09:42:06;;;;;;;18.60;4.60;;;;;;;;;;103677;1290;545081;-76
2023/10/02 09:45:46;;;;;;;10.60;4.50;;;;;;;;;;103727;1289;545437;-78
2023/10/02 09:49:21;;;;;;;10.20;4.10;;;;;;;;;;103734;1291;546708;-76
2023/10/02 09:53:08;;;;;;;9.60;4.00;;;;;;;;;;103281;1294;548080;-77
2023/10/02 09:56:28;;;;;;;9.80;4.30;;;;;;;;;;104132;1286;545678;-77
2023/10/02 10:00:37;;;;;;;9.90;3.80;;;;;;;;;;103666;1292;547845;-79
2023/10/02 10:03:55;;;;;;;10.20;4.20;;;;;;;;;;103641;1290;547989;-77
2023/10/02 10:07:46;;;;;;;9.50;3.80;;;;;;;;;;103559;1292;545832;-77
2023/10/02 10:11:13;;;;;;;9.90;4.40;;;;;;;;;;103722;1292;544989;-77
2023/10/02 10:14:41;;;;;;;9.10;4.20;;;;;;;;;;104238;1286;545246;-77
2023/10/02 10:18:18;;;;;;;11.10;4.70;;;;;;;;;;103858;1289;544798;-74
2023/10/02 10:22:04;;;;;;;9.90;4.60;;;;;;;;;;103555;1292;547800;-74
2023/10/02 10:25:33;;;;;;;11.10;4.60;;;;;;;;;;103780;1288;544827;-77
2023/10/02 10:29:29;;;;;;;10.60;4.90;;;;;;;;;;104439;1282;546114;-76
2023/10/02 10:33:27;;;;;;;12.50;5.20;;;;;;;;;;103549;1290;547990;-76
2023/10/02 10:36:35;;;;;;;11.00;4.20;;;;;;;;;;103530;1291;548020;-79
2023/10/02 10:40:40;;;;;;;15.20;4.90;;;;;;;;;;103955;1289;545569;-76
2023/10/02 10:44:06;;;;;;;10.20;5.10;;;;;;;;;;103674;1290;548082;-77
2023/10/02 10:47:37;;;;;;;10.30;4.80;;;;;;;;;;103495;1291;547748;-76
2023/10/02 10:51:09;;;;;;;10.10;4.40;;;;;;;;;;103613;1291;545491;-77
2023/10/02 11:05:03;;;;;;;14.90;5.30;;;;;;;;;;104591;1285;549574;-75
2023/10/02 11:07:52;;;;;;;12.60;4.90;;;;;;;;;;103727;1294;545057;-79
2023/10/02 11:11:48;;;;;;;10.30;4.80;;;;;;;;;;103678;1292;544802;-76
2023/10/02 11:15:28;;;;;;;9.90;4.80;;;;;;;;;;103631;1292;544917;-76
2023/10/02 11:19:10;;;;;;;9.60;4.60;;;;;;;;;;103852;1289;544862;-79
2023/10/02 11:22:22;;;;;;;10.70;4.40;;;;;;;;;;103912;1292;544967;-75
2023/10/02 11:25:59;;;;;;;13.40;4.80;;;;;;;;;;103845;1289;545014;-76
2023/10/02 11:29:42;;;;;;;9.60;4.30;;;;;;;;;;103692;1291;545409;-77
2023/10/02 11:33:27;;;;;;;9.30;4.40;;;;;;;;;;103476;1291;547803;-76
2023/10/02 11:36:58;;;;;;;8.70;4.00;;;;;;;;;;103518;1292;547968;-76
2023/10/02 11:40:44;;;;;;;9.80;4.10;;;;;;;;;;103645;1294;548006;-83
2023/10/02 11:44:12;;;;;;;9.50;4.20;;;;;;;;;;103505;1291;547979;-76
2023/10/02 11:47:43;;;;;;;9.20;4.10;;;;;;;;;;103789;1290;545490;-76
2023/10/02 11:51:28;;;;;;;22.00;5.50;;;;;;;;;;103217;1294;547806;-76
2023/10/02 11:54:58;;;;;;;10.60;4.10;;;;;;;;;;103935;1289;545157;-75
2023/10/02 11:58:36;;;;;;;12.70;4.30;;;;;;;;;;103856;1288;545294;-75
2023/10/02 12:02:16;;;;;;;8.10;3.80;;;;;;;;;;103834;1290;545807;-77
2023/10/02 12:05:51;;;;;;;8.40;3.70;;;;;;;;;;103902;1288;545903;-76
2023/10/02 12:09:29;;;;;;;9.10;3.90;;;;;;;;;;103629;1291;544977;-81
2023/10/02 12:13:08;;;;;;;8.90;4.20;;;;;;;;;;103533;1292;545445;-82
2023/10/02 12:16:43;;;;;;;9.70;4.10;;;;;;;;;;103678;1290;545454;-76
2023/10/02 12:20:22;;;;;;;9.70;3.70;;;;;;;;;;103702;1291;545358;-75
2023/10/02 12:24:03;;;;;;;8.80;4.20;;;;;;;;;;103663;1292;545044;-77
2023/10/02 12:27:38;;;;;;;13.70;3.50;;;;;;;;;;103725;1289;545134;-75
2023/10/02 12:31:14;;;;;;;10.50;3.70;;;;;;;;;;103490;1294;544978;-78
2023/10/02 12:34:50;;;;;;;6.90;3.30;;;;;;;;;;103832;1288;544751;-76
2023/10/02 12:38:28;;;;;;;11.20;4.00;;;;;;;;;;103940;1290;545063;-76
2023/10/02 12:42:12;;;;;;;8.40;4.00;;;;;;;;;;103574;1292;548146;-78
2023/10/02 12:46:04;;;;;;;10.00;4.10;;;;;;;;;;103677;1292;547839;-77
2023/10/02 12:49:40;;;;;;;8.30;3.90;;;;;;;;;;104202;1283;547786;-75
2023/10/02 12:52:58;;;;;;;9.70;4.00;;;;;;;;;;103815;1289;545785;-78
2023/10/02 12:56:38;;;;;;;9.70;4.70;;;;;;;;;;103458;1295;544790;-76
2023/10/02 13:00:16;;;;;;;13.30;4.80;;;;;;;;;;103847;1289;544920;-74
2023/10/02 13:03:51;;;;;;;8.20;3.90;;;;;;;;;;104262;1286;545959;-76
2023/10/02 13:07:28;;;;;;;8.40;4.40;;;;;;;;;;103511;1308;544856;-75
2023/10/02 13:11:06;;;;;;;9.80;4.20;;;;;;;;;;103667;1290;545919;-77
2023/10/02 13:14:43;;;;;;;8.60;4.40;;;;;;;;;;103889;1289;545072;-77
2023/10/02 13:18:27;;;;;;;10.30;4.20;;;;;;;;;;103634;1291;548133;-73
2023/10/02 13:21:58;;;;;;;12.00;4.90;;;;;;;;;;104016;1289;544936;-78
2023/10/02 13:25:35;;;;;;;15.80;5.00;;;;;;;;;;104506;1283;544786;-76
2023/10/02 13:29:18;;;;;;;12.10;4.60;;;;;;;;;;104087;1284;547822;-77
2023/10/02 13:32:50;;;;;;;11.40;5.10;;;;;;;;;;104301;1286;544953;-75
2023/10/02 13:36:27;;;;;;;12.40;5.00;;;;;;;;;;103768;1291;545179;-75
2023/10/02 13:40:18;;;;;;;16.60;5.00;;;;;;;;;;104370;1288;546716;-75
2023/10/02 13:43:44;;;;;;;16.60;5.30;;;;;;;;;;103748;1291;545501;-76
2023/10/02 13:47:26;;;;;;;12.30;4.50;;;;;;;;;;103175;1297;547849;-76
2023/10/02 13:50:58;;;;;;;11.30;4.70;;;;;;;;;;103746;1290;544781;-79
2023/10/02 13:54:40;;;;;;;10.80;5.60;;;;;;;;;;103402;1294;547981;-77
2023/10/02 13:58:12;;;;;;;14.30;5.50;;;;;;;;;;103784;1289;545430;-79
2023/10/02 14:01:55;;;;;;;11.50;5.30;;;;;;;;;;103616;1291;547987;-76
2023/10/02 14:05:29;;;;;;;21.60;6.90;;;;;;;;;;103835;1289;544864;-79
2023/10/02 14:09:10;;;;;;;13.30;5.40;;;;;;;;;;103963;1295;545458;-76
2023/10/02 14:13:01;;;;;;;10.70;5.70;;;;;;;;;;104266;1287;547931;-81
2023/10/02 14:16:20;;;;;;;13.70;5.60;;;;;;;;;;103719;1289;545161;-82
2023/10/02 14:30:22;;;;;;;9.60;5.30;;;;;;;;;;104423;1292;550016;-83
2023/10/02 14:33:19;;;;;;;11.30;5.60;;;;;;;;;;103563;1295;548427;-76
2023/10/02 14:36:51;;;;;;;10.40;4.70;;;;;;;;;;103764;1295;544797;-76
2023/10/02 14:40:33;;;;;;;11.50;5.20;;;;;;;;;;103873;1311;545792;-76
2023/10/02 14:54:35;;;;;;;10.90;5.30;;;;;;;;;;104702;1282;553463;-77
2023/10/02 14:57:34;;;;;;;10.80;5.00;;;;;;;;;;103483;1291;548179;-80
2023/10/02 15:01:16;;;;;;;10.60;4.90;;;;;;;;;;103625;1295;547935;-77
2023/10/02 15:04:48;;;;;;;11.20;5.60;;;;;;;;;;103624;1289;548105;-77
2023/10/02 15:08:21;;;;;;;13.60;5.00;;;;;;;;;;103868;1293;545053;-76
2023/10/02 15:12:03;;;;;;;10.60;5.40;;;;;;;;;;103938;1289;546788;-78
2023/10/02 15:15:36;;;;;;;13.40;6.40;;;;;;;;;;103679;1291;544988;-81
2023/10/02 15:19:13;;;;;;;14.50;5.80;;;;;;;;;;103972;1291;545220;-76
2023/10/02 15:22:56;;;;;;;11.30;5.40;;;;;;;;;;103624;1292;547905;-78
2023/10/02 15:26:33;;;;;;;12.40;5.90;;;;;;;;;;103525;1291;547822;-80
2023/10/02 15:30:12;;;;;;;11.90;5.30;;;;;;;;;;103678;1289;548079;-76
2023/10/02 15:33:42;;;;;;;11.80;5.50;;;;;;;;;;103619;1293;545449;-77
2023/10/02 15:47:45;;;;;;;11.20;5.70;;;;;;;;;;104636;1282;551164;-83
2023/10/02 15:50:43;;;;;;;14.70;6.40;;;;;;;;;;103464;1292;547905;-76
2023/10/02 15:54:20;;;;;;;15.00;6.50;;;;;;;;;;103643;1292;549459;-76
2023/10/02 15:57:52;;;;;;;12.70;6.00;;;;;;;;;;103663;1291;545498;-76
2023/10/02 16:01:29;;;;;;;12.50;6.30;;;;;;;;;;103582;1292;544776;-78
2023/10/02 16:05:08;;;;;;;15.90;7.00;;;;;;;;;;103678;1301;545016;-77
2023/10/02 16:08:48;;;;;;;54.20;36.80;;;;;;;;;;103736;1292;545366;-77
2023/10/02 16:12:21;;;;;;;25.80;16.80;;;;;;;;;;104392;1285;545044;-78
2023/10/02 16:16:06;;;;;;;17.60;8.20;;;;;;;;;;103917;1287;545209;-77
2023/10/02 16:19:42;;;;;;;12.80;6.20;;;;;;;;;;103449;1293;547999;-77
2023/10/02 16:23:19;;;;;;;13.20;6.10;;;;;;;;;;103603;1291;547963;-79
2023/10/02 16:26:56;;;;;;;12.20;6.00;;;;;;;;;;103545;1294;547910;-77
2023/10/02 16:30:50;;;;;;;13.20;6.30;;;;;;;;;;103689;1288;547806;-76
2023/10/02 16:44:57;;;;;;;14.90;6.80;;;;;;;;;;104621;1285;550285;-81
2023/10/02 16:47:41;;;;;;;11.60;5.80;;;;;;;;;;104585;1286;545814;-77
2023/10/02 16:51:28;;;;;;;11.70;5.70;;;;;;;;;;103683;1292;547324;-83
2023/10/02 16:54:56;;;;;;;13.60;6.30;;;;;;;;;;103502;1295;545034;-79
2023/10/02 16:58:33;;;;;;;14.20;6.10;;;;;;;;;;103822;1293;545012;-80
2023/10/02 17:02:30;;;;;;;14.40;6.90;;;;;;;;;;103661;1289;548028;-76
2023/10/02 17:05:54;;;;;;;14.70;6.20;;;;;;;;;;103467;1292;548149;-77
2023/10/02 17:09:29;;;;;;;15.00;6.90;;;;;;;;;;103856;1289;545145;-76
2023/10/02 17:13:03;;;;;;;16.90;7.10;;;;;;;;;;103489;1295;545360;-76
2023/10/02 17:16:40;;;;;;;14.30;7.20;;;;;;;;;;103730;1290;544912;-77
2023/10/02 17:20:20;;;;;;;22.00;7.20;;;;;;;;;;103685;1292;544990;-76
2023/10/02 17:23:56;;;;;;;18.80;7.80;;;;;;;;;;103679;1292;544814;-81
2023/10/02 17:27:39;;;;;;;21.20;7.60;;;;;;;;;;103597;1289;547803;-78
2023/10/02 17:31:11;;;;;;;19.20;8.00;;;;;;;;;;103714;1292;544820;-80
2023/10/02 17:34:55;;;;;;;22.70;8.00;;;;;;;;;;103439;1294;548152;-76
2023/10/02 17:38:31;;;;;;;20.10;7.30;;;;;;;;;;103591;1290;547816;-76
2023/10/02 17:42:09;;;;;;;14.80;6.40;;;;;;;;;;103563;1294;548051;-76
2023/10/02 17:45:46;;;;;;;13.90;6.20;;;;;;;;;;103778;1288;547806;-76
2023/10/02 17:49:23;;;;;;;15.70;6.20;;;;;;;;;;103661;1292;548005;-76
2023/10/02 17:53:01;;;;;;;12.80;6.10;;;;;;;;;;103578;1295;546025;-75
2023/10/02 17:56:39;;;;;;;17.40;6.90;;;;;;;;;;103511;1290;547820;-76
2023/10/02 18:00:17;;;;;;;13.00;5.70;;;;;;;;;;103610;1291;548052;-76
2023/10/02 18:03:48;;;;;;;14.10;6.20;;;;;;;;;;103685;1295;544999;-76
2023/10/02 18:07:30;;;;;;;14.20;6.30;;;;;;;;;;103539;1291;547855;-76
2023/10/02 18:11:23;;;;;;;14.00;6.00;;;;;;;;;;104082;1288;547968;-78
2023/10/02 18:14:48;;;;;;;16.70;6.00;;;;;;;;;;103509;1292;547999;-76
2023/10/02 18:18:19;;;;;;;11.90;6.10;;;;;;;;;;103772;1290;544859;-76
2023/10/02 18:22:01;;;;;;;13.40;5.80;;;;;;;;;;104585;1282;547952;-76
2023/10/02 18:25:38;;;;;;;12.50;6.00;;;;;;;;;;103548;1292;547765;-77
2023/10/02 18:29:15;;;;;;;11.70;6.00;;;;;;;;;;103645;1292;547792;-78
2023/10/02 18:32:53;;;;;;;12.80;6.10;;;;;;;;;;103585;1291;548193;-76
2023/10/02 18:36:50;;;;;;;15.30;6.10;;;;;;;;;;103816;1302;547841;-79
2023/10/02 18:40:07;;;;;;;14.20;7.00;;;;;;;;;;104212;1286;544809;-76
2023/10/02 18:43:45;;;;;;;12.10;5.50;;;;;;;;;;103554;1292;548184;-76
2023/10/02 18:47:23;;;;;;;12.40;5.90;;;;;;;;;;103300;1294;547979;-76
2023/10/02 18:50:54;;;;;;;15.00;6.30;;;;;;;;;;103850;1302;545913;-82
2023/10/02 18:54:35;;;;;;;12.40;6.40;;;;;;;;;;104070;1289;545451;-78
2023/10/02 18:58:10;;;;;;;12.50;6.40;;;;;;;;;;103575;1292;544913;-79
2023/10/02 19:01:47;;;;;;;14.50;8.30;;;;;;;;;;103769;1291;545104;-75
2023/10/02 19:05:33;;;;;;;14.60;7.30;;;;;;;;;;103749;1288;548171;-78
2023/10/02 19:09:11;;;;;;;12.70;6.20;;;;;;;;;;103719;1288;548110;-76
2023/10/02 19:12:45;;;;;;;11.50;5.80;;;;;;;;;;103565;1292;548216;-75
2023/10/02 19:16:22;;;;;;;13.50;5.80;;;;;;;;;;103451;1305;548264;-76
2023/10/02 19:19:54;;;;;;;12.80;6.00;;;;;;;;;;103756;1291;544808;-76
2023/10/02 19:23:37;;;;;;;13.00;6.20;;;;;;;;;;103691;1293;548028;-75
2023/10/02 19:27:09;;;;;;;15.50;6.10;;;;;;;;;;103863;1290;544768;-76
2023/10/02 19:30:48;;;;;;;17.80;7.10;;;;;;;;;;103854;1290;545216;-75
2023/10/02 19:34:30;;;;;;;13.70;6.70;;;;;;;;;;103524;1292;547892;-75
2023/10/02 19:38:09;;;;;;;12.20;6.00;;;;;;;;;;103641;1292;548115;-75
2023/10/02 19:41:45;;;;;;;12.60;5.90;;;;;;;;;;103571;1291;547772;-75
2023/10/02 19:45:18;;;;;;;12.90;6.20;;;;;;;;;;103625;1292;548135;-79
2023/10/02 19:48:54;;;;;;;12.20;5.90;;;;;;;;;;104001;1289;544993;-81
2023/10/02 19:52:31;;;;;;;13.60;6.30;;;;;;;;;;103353;1294;544918;-75
2023/10/02 19:56:14;;;;;;;14.00;6.10;;;;;;;;;;103544;1291;548106;-76
2023/10/02 19:59:42;;;;;;;14.10;5.80;;;;;;;;;;103688;1292;544820;-77
2023/10/02 20:03:28;;;;;;;13.00;5.80;;;;;;;;;;104047;1288;544770;-75
2023/10/02 20:07:03;;;;;;;12.60;6.00;;;;;;;;;;103676;1298;544888;-75
2023/10/02 20:10:40;;;;;;;13.90;6.90;;;;;;;;;;103724;1291;544963;-75
2023/10/02 20:14:21;;;;;;;17.50;7.60;;;;;;;;;;103477;1294;545162;-78
2023/10/02 20:18:01;;;;;;;20.80;10.60;;;;;;;;;;103451;1304;547959;-75
2023/10/02 20:21:33;;;;;;;21.40;12.20;;;;;;;;;;103756;1291;546026;-75
2023/10/02 20:25:12;;;;;;;27.80;14.50;;;;;;;;;;103488;1294;544945;-75
2023/10/02 20:28:48;;;;;;;26.80;13.00;;;;;;;;;;103912;1301;544823;-81
2023/10/02 20:32:31;;;;;;;23.00;12.30;;;;;;;;;;103648;1292;545459;-75
2023/10/02 20:36:06;;;;;;;24.30;11.60;;;;;;;;;;103565;1295;544973;-75
2023/10/02 20:39:49;;;;;;;20.20;10.00;;;;;;;;;;103601;1291;547854;-75
2023/10/02 20:43:17;;;;;;;17.30;9.00;;;;;;;;;;103804;1290;545072;-78
2023/10/02 20:46:55;;;;;;;17.80;8.70;;;;;;;;;;103714;1290;544763;-80
2023/10/02 20:50:35;;;;;;;16.90;7.50;;;;;;;;;;104222;1285;544756;-76
2023/10/02 20:54:13;;;;;;;14.70;7.10;;;;;;;;;;103739;1289;545010;-80
2023/10/02 20:57:54;;;;;;;16.10;7.50;;;;;;;;;;103560;1292;547776;-75
2023/10/02 21:01:31;;;;;;;16.90;7.70;;;;;;;;;;103490;1291;548031;-76
2023/10/02 21:05:02;;;;;;;17.40;8.20;;;;;;;;;;103785;1292;545068;-75
2023/10/02 21:08:40;;;;;;;16.00;7.80;;;;;;;;;;103731;1289;545726;-75
2023/10/02 21:12:18;;;;;;;18.00;8.60;;;;;;;;;;103971;1289;545737;-75
2023/10/02 21:26:24;;;;;;;14.50;7.20;;;;;;;;;;104570;1283;553448;-75
2023/10/02 21:29:16;;;;;;;14.50;7.00;;;;;;;;;;104294;1289;545033;-75
2023/10/02 21:32:55;;;;;;;15.40;6.80;;;;;;;;;;104153;1297;545219;-75
2023/10/02 21:36:38;;;;;;;16.00;7.10;;;;;;;;;;103538;1292;548088;-78
2023/10/02 21:40:12;;;;;;;16.40;7.80;;;;;;;;;;103731;1289;545604;-80
2023/10/02 21:43:47;;;;;;;16.20;7.50;;;;;;;;;;103723;1292;544914;-76
2023/10/02 21:47:30;;;;;;;16.20;7.70;;;;;;;;;;103663;1288;548399;-75
2023/10/02 21:51:11;;;;;;;15.50;7.60;;;;;;;;;;103612;1291;547763;-75
2023/10/02 21:54:41;;;;;;;17.10;7.50;;;;;;;;;;103727;1295;545517;-76
2023/10/02 21:58:16;;;;;;;17.30;7.50;;;;;;;;;;104268;1289;545086;-76
2023/10/02 22:01:54;;;;;;;19.80;8.10;;;;;;;;;;103720;1290;544976;-75
2023/10/02 22:05:32;;;;;;;18.60;8.20;;;;;;;;;;103761;1292;545599;-79
2023/10/02 22:09:14;;;;;;;16.40;7.90;;;;;;;;;;103592;1292;547812;-75
2023/10/02 22:12:52;;;;;;;17.10;7.80;;;;;;;;;;103618;1291;546413;-75
2023/10/02 22:16:24;;;;;;;17.90;8.10;;;;;;;;;;103730;1291;544983;-75
2023/10/02 22:20:07;;;;;;;14.90;7.00;;;;;;;;;;103562;1292;547765;-75
2023/10/02 22:23:44;;;;;;;14.60;6.90;;;;;;;;;;103630;1289;547904;-76
2023/10/02 22:27:21;;;;;;;17.20;7.00;;;;;;;;;;103578;1289;548060;-75
2023/10/02 22:30:55;;;;;;;15.20;6.70;;;;;;;;;;103824;1288;545722;-76
2023/10/02 22:45:00;;;;;;;13.90;6.00;;;;;;;;;;104108;1289;554706;-73